Strona główna
METAR-TAF:

METAR-TAF

Lotnisko :

Port lotniczy Amami

Amami, Japonia

Szerokość geograficzna: 28-26N, Długość geograficzna: 129-43E, wysokość: 4 m

Aktualna obserwacja pogody

Raport powstał 4 godziny i 32 minut temu, godzina 10:00 UTC
Wiatr 12 kt od wschodnio-południowy wschód
Temperatura 28°C
Wilgotność 94%
Ciśnienie 1007 hPa
Widzialność 10 km lub więcej
Mało chmury na wysokości 1300 ft
Przerywane chmury na wysokości 1500 ft
Przerywane chmury

METAR: RJKA 171000Z 12012KT 9999 FEW013 BKN015 BKN/// 28/27 Q1007

czas: 23:32 (14:32 UTC)


TAF: brakujący

Obserwacja i prognoza pogody dla ponad 4000 lotnisk (raport METAR i TAF).

Dostępne stacje oznaczono żółtymi i czerwonymi punktami na mapie.

Najedź kursorem aby zobaczyć nazwę stacji.

Kliknij aby zobaczyć obserwacje i prognozy pogody.

Aby zmienić mapę: kliknij na zielony przycisk z czarnym krzyżykiem, aby powiększyć; na zielony przycisk z myślnikiem, aby pomniejszyć; na zielone strzałki, aby przejść do map sąsiednich.


METAR-TAF: